ABW419 UBBB-URSS
Flight info
| Callsign | ABW419 |
|---|---|
| Flight time | 1h 30m |
| Altitude | 40000 |
| Route | EKRAM Y124 ABTEK N43 BUMAR DCT MKL DCT MOMUG B491 RESLO A944 GUBOR G487 BINOL BINOL1L |
| Aircraft | B772/H-SDE2E3FGHIJ3J5M1P2RWXYZ/LB1D1 |
Departure
| Time | 2026-05-05 16:33 |
|---|---|
| Airport | Heydar Aliyev International Airport (UBBB) |
Arrival
| Time | 2026-05-05 18:03 |
|---|---|
| Airport | Sochi International Airport (URSS) |
| Time | Latitude | Longitude | Altitude | Speed | Heading |
|---|---|---|---|---|---|
| 2026-05-05 16:14 | 40.46578 | 50.05047 | 23 ft | 0 kts | 109° |
| 2026-05-05 16:18 | 40.46585 | 50.05021 | 23 ft | 2 kts | 109° |
| 2026-05-05 16:18 | 40.46590 | 50.05002 | 23 ft | 2 kts | 109° |
| 2026-05-05 16:18 | 40.46599 | 50.04964 | 23 ft | 2 kts | 87° |
| 2026-05-05 16:19 | 40.46595 | 50.04945 | 23 ft | 2 kts | 54° |
| 2026-05-05 16:19 | 40.46584 | 50.04931 | 23 ft | 2 kts | 25° |
| 2026-05-05 16:19 | 40.46560 | 50.04918 | 23 ft | 1 kts | 26° |
| 2026-05-05 16:20 | 40.46557 | 50.04916 | 23 ft | 0 kts | 27° |
| 2026-05-05 16:22 | 40.46576 | 50.04929 | 23 ft | 3 kts | 27° |
| 2026-05-05 16:22 | 40.46647 | 50.04977 | 23 ft | 7 kts | 27° |
| 2026-05-05 16:23 | 40.46767 | 50.05047 | 23 ft | 11 kts | 18° |
| 2026-05-05 16:23 | 40.46846 | 50.05049 | 23 ft | 12 kts | 2° |
| 2026-05-05 16:23 | 40.46921 | 50.05180 | 23 ft | 11 kts | 88° |
| 2026-05-05 16:24 | 40.46924 | 50.05295 | 23 ft | 13 kts | 88° |
| 2026-05-05 16:24 | 40.46928 | 50.05423 | 23 ft | 14 kts | 88° |
| 2026-05-05 16:24 | 40.46934 | 50.05706 | 23 ft | 16 kts | 88° |
| 2026-05-05 16:25 | 40.46939 | 50.05864 | 23 ft | 17 kts | 88° |
| 2026-05-05 16:25 | 40.46925 | 50.06061 | 23 ft | 9 kts | 135° |
| 2026-05-05 16:25 | 40.46870 | 50.06088 | 23 ft | 9 kts | 173° |
| 2026-05-05 16:26 | 40.46717 | 50.06093 | 23 ft | 12 kts | 179° |
| 2026-05-05 16:26 | 40.46520 | 50.06095 | 23 ft | 15 kts | 179° |
| 2026-05-05 16:27 | 40.46408 | 50.06097 | 23 ft | 16 kts | 179° |
| 2026-05-05 16:27 | 40.46290 | 50.06098 | 23 ft | 17 kts | 179° |
| 2026-05-05 16:27 | 40.46168 | 50.06100 | 23 ft | 14 kts | 179° |
| 2026-05-05 16:27 | 40.46069 | 50.06101 | 23 ft | 14 kts | 179° |
| 2026-05-05 16:28 | 40.45981 | 50.06102 | 23 ft | 11 kts | 179° |
| 2026-05-05 16:28 | 40.45899 | 50.06103 | 23 ft | 10 kts | 179° |
| 2026-05-05 16:28 | 40.45823 | 50.06105 | 23 ft | 11 kts | 179° |
| 2026-05-05 16:28 | 40.45748 | 50.06105 | 23 ft | 9 kts | 180° |
| 2026-05-05 16:29 | 40.45722 | 50.06106 | 23 ft | 0 kts | 175° |
| 2026-05-05 16:30 | 40.45706 | 50.06109 | 23 ft | 6 kts | 168° |
| 2026-05-05 16:30 | 40.45661 | 50.06152 | 23 ft | 9 kts | 114° |
| 2026-05-05 16:30 | 40.45652 | 50.06242 | 23 ft | 9 kts | 92° |
| 2026-05-05 16:31 | 40.45678 | 50.06316 | 23 ft | 9 kts | 23° |
| 2026-05-05 16:31 | 40.45715 | 50.06321 | 23 ft | 0 kts | 358° |
| 2026-05-05 16:32 | 40.45724 | 50.06321 | 23 ft | 8 kts | 358° |
| 2026-05-05 16:33 | 40.45884 | 50.06319 | 23 ft | 44 kts | 359° |
| 2026-05-05 16:33 | 40.46468 | 50.06310 | 23 ft | 118 kts | 359° |
| 2026-05-05 16:33 | 40.47479 | 50.06295 | 131 ft | 166 kts | 359° |
| 2026-05-05 16:33 | 40.48604 | 50.06203 | 909 ft | 162 kts | 351° |
| 2026-05-05 16:34 | 40.49751 | 50.05986 | 1480 ft | 171 kts | 353° |
| 2026-05-05 16:34 | 40.50947 | 50.05890 | 1957 ft | 179 kts | 2° |
| 2026-05-05 16:34 | 40.52224 | 50.05883 | 2401 ft | 188 kts | 356° |
| 2026-05-05 16:34 | 40.53531 | 50.05732 | 2822 ft | 197 kts | 356° |
| 2026-05-05 16:35 | 40.54930 | 50.05633 | 3238 ft | 211 kts | 358° |
| 2026-05-05 16:35 | 40.56439 | 50.05545 | 3764 ft | 223 kts | 356° |
| 2026-05-05 16:35 | 40.58015 | 50.05422 | 4333 ft | 232 kts | 356° |
| 2026-05-05 16:35 | 40.59673 | 50.05291 | 4702 ft | 249 kts | 356° |
| 2026-05-05 16:36 | 40.61445 | 50.05157 | 5105 ft | 263 kts | 356° |
| 2026-05-05 16:36 | 40.63311 | 50.05019 | 5694 ft | 269 kts | 355° |
| 2026-05-05 16:36 | 40.65193 | 50.04878 | 6270 ft | 275 kts | 355° |
| 2026-05-05 16:36 | 40.67088 | 50.04737 | 6868 ft | 279 kts | 355° |
| 2026-05-05 16:37 | 40.69042 | 50.04591 | 7473 ft | 283 kts | 355° |
| 2026-05-05 16:37 | 40.71042 | 50.04442 | 8070 ft | 288 kts | 355° |
| 2026-05-05 16:37 | 40.73038 | 50.04293 | 8643 ft | 292 kts | 355° |
| 2026-05-05 16:37 | 40.75067 | 50.04141 | 9212 ft | 296 kts | 355° |
| 2026-05-05 16:38 | 40.77139 | 50.03986 | 9803 ft | 299 kts | 354° |
| 2026-05-05 16:38 | 40.79202 | 50.03831 | 10293 ft | 306 kts | 354° |
| 2026-05-05 16:38 | 40.81403 | 50.03665 | 10507 ft | 322 kts | 354° |
| 2026-05-05 16:38 | 40.83662 | 50.03495 | 10705 ft | 337 kts | 354° |
| 2026-05-05 16:39 | 40.86066 | 50.03314 | 10856 ft | 353 kts | 354° |
| 2026-05-05 16:39 | 40.88559 | 50.03126 | 10997 ft | 367 kts | 354° |
| 2026-05-05 16:39 | 40.91137 | 50.02933 | 11108 ft | 380 kts | 354° |
| 2026-05-05 16:39 | 40.93794 | 50.02733 | 11379 ft | 387 kts | 354° |
| 2026-05-05 16:40 | 40.96516 | 50.02529 | 11801 ft | 391 kts | 354° |
| 2026-05-05 16:40 | 40.99208 | 50.02328 | 12255 ft | 393 kts | 354° |
| 2026-05-05 16:40 | 41.01955 | 50.02121 | 12720 ft | 396 kts | 354° |
| 2026-05-05 16:40 | 41.04695 | 50.01915 | 13171 ft | 400 kts | 354° |
| 2026-05-05 16:41 | 41.07486 | 50.01704 | 13633 ft | 403 kts | 353° |
| 2026-05-05 16:41 | 41.10295 | 50.01406 | 14102 ft | 404 kts | 348° |
| 2026-05-05 16:41 | 41.13000 | 50.00552 | 14509 ft | 404 kts | 337° |
| 2026-05-05 16:41 | 41.15588 | 49.99046 | 14980 ft | 402 kts | 326° |
| 2026-05-05 16:42 | 41.17876 | 49.97026 | 15521 ft | 399 kts | 317° |
| 2026-05-05 16:42 | 41.20087 | 49.94760 | 16091 ft | 400 kts | 316° |
| 2026-05-05 16:42 | 41.22253 | 49.92514 | 16605 ft | 402 kts | 316° |
| 2026-05-05 16:42 | 41.24485 | 49.90193 | 17125 ft | 405 kts | 315° |
| 2026-05-05 16:43 | 41.26698 | 49.87889 | 17665 ft | 407 kts | 315° |
| 2026-05-05 16:43 | 41.28920 | 49.85572 | 18178 ft | 409 kts | 315° |
| 2026-05-05 16:43 | 41.31150 | 49.83245 | 18656 ft | 413 kts | 314° |
| 2026-05-05 16:43 | 41.33413 | 49.80880 | 19121 ft | 416 kts | 314° |
| 2026-05-05 16:44 | 41.35678 | 49.78510 | 19579 ft | 420 kts | 314° |
| 2026-05-05 16:44 | 41.37996 | 49.76083 | 20060 ft | 423 kts | 314° |
| 2026-05-05 16:44 | 41.40314 | 49.73653 | 20510 ft | 427 kts | 314° |
| 2026-05-05 16:44 | 41.42633 | 49.71220 | 20948 ft | 430 kts | 313° |
| 2026-05-05 16:45 | 41.44977 | 49.68758 | 21385 ft | 434 kts | 313° |
| 2026-05-05 16:45 | 41.47354 | 49.66260 | 21824 ft | 438 kts | 313° |
| 2026-05-05 16:45 | 41.49773 | 49.63714 | 22261 ft | 441 kts | 313° |
| 2026-05-05 16:45 | 41.52193 | 49.61165 | 22694 ft | 445 kts | 313° |
| 2026-05-05 16:46 | 41.54610 | 49.58617 | 23120 ft | 449 kts | 313° |
| 2026-05-05 16:46 | 41.57077 | 49.56014 | 23543 ft | 452 kts | 313° |
| 2026-05-05 16:46 | 41.59543 | 49.53410 | 23964 ft | 456 kts | 313° |
| 2026-05-05 16:46 | 41.62019 | 49.50791 | 24378 ft | 460 kts | 313° |
| 2026-05-05 16:47 | 41.64552 | 49.48111 | 24795 ft | 463 kts | 313° |
| 2026-05-05 16:47 | 41.67071 | 49.45441 | 25208 ft | 467 kts | 313° |
| 2026-05-05 16:47 | 41.69615 | 49.42743 | 25612 ft | 471 kts | 313° |
| 2026-05-05 16:47 | 41.72162 | 49.40039 | 26013 ft | 474 kts | 313° |
| 2026-05-05 16:48 | 41.74749 | 49.37289 | 26411 ft | 478 kts | 313° |
| 2026-05-05 16:48 | 41.77346 | 49.34526 | 26802 ft | 481 kts | 313° |
| 2026-05-05 16:48 | 41.79937 | 49.31676 | 27246 ft | 478 kts | 308° |
| 2026-05-05 16:48 | 41.82200 | 49.28475 | 27636 ft | 471 kts | 300° |
| 2026-05-05 16:49 | 41.84219 | 49.25020 | 28009 ft | 473 kts | 298° |
| 2026-05-05 16:49 | 41.86230 | 49.21494 | 28405 ft | 476 kts | 298° |
| 2026-05-05 16:49 | 41.88218 | 49.17997 | 28785 ft | 479 kts | 298° |
| 2026-05-05 16:49 | 41.90255 | 49.14409 | 29168 ft | 482 kts | 298° |
| 2026-05-05 16:50 | 41.92274 | 49.10848 | 29549 ft | 485 kts | 298° |
| 2026-05-05 16:50 | 41.94314 | 49.07248 | 30040 ft | 486 kts | 298° |
| 2026-05-05 16:50 | 41.96350 | 49.03653 | 30594 ft | 484 kts | 298° |
| 2026-05-05 16:50 | 41.98373 | 49.00074 | 31157 ft | 482 kts | 298° |
| 2026-05-05 16:51 | 42.00402 | 48.96481 | 31743 ft | 480 kts | 298° |
| 2026-05-05 16:51 | 42.02389 | 48.92958 | 32375 ft | 476 kts | 298° |
| 2026-05-05 16:51 | 42.04441 | 48.89440 | 33049 ft | 474 kts | 301° |
| 2026-05-05 16:51 | 42.06530 | 48.86105 | 33578 ft | 473 kts | 301° |
| 2026-05-05 16:52 | 42.08651 | 48.82732 | 34005 ft | 474 kts | 301° |
| 2026-05-05 16:52 | 42.10770 | 48.79350 | 34427 ft | 474 kts | 301° |
| 2026-05-05 16:52 | 42.12899 | 48.75940 | 34775 ft | 475 kts | 301° |
| 2026-05-05 16:52 | 42.15027 | 48.72521 | 35101 ft | 477 kts | 301° |
| 2026-05-05 16:53 | 42.17150 | 48.69105 | 35502 ft | 477 kts | 302° |
| 2026-05-05 16:53 | 42.19261 | 48.65702 | 35906 ft | 476 kts | 302° |
| 2026-05-05 16:53 | 42.21377 | 48.62285 | 36292 ft | 475 kts | 302° |
| 2026-05-05 16:53 | 42.23475 | 48.58890 | 36579 ft | 475 kts | 302° |
| 2026-05-05 16:54 | 42.25583 | 48.55474 | 36806 ft | 477 kts | 302° |
| 2026-05-05 16:54 | 42.27703 | 48.52034 | 37065 ft | 478 kts | 302° |
| 2026-05-05 16:54 | 42.29826 | 48.48585 | 37355 ft | 478 kts | 302° |
| 2026-05-05 16:54 | 42.31967 | 48.45103 | 37620 ft | 478 kts | 302° |
| 2026-05-05 16:55 | 42.34091 | 48.41644 | 37851 ft | 478 kts | 302° |
| 2026-05-05 16:55 | 42.36200 | 48.38205 | 38043 ft | 479 kts | 303° |
| 2026-05-05 16:55 | 42.38327 | 48.34730 | 38230 ft | 480 kts | 302° |
| 2026-05-05 16:55 | 42.40469 | 48.31231 | 38480 ft | 480 kts | 302° |
| 2026-05-05 16:56 | 42.42578 | 48.27779 | 38717 ft | 479 kts | 302° |
| 2026-05-05 16:56 | 42.44711 | 48.24285 | 38905 ft | 479 kts | 302° |
| 2026-05-05 16:56 | 42.46836 | 48.20799 | 39048 ft | 481 kts | 302° |
| 2026-05-05 16:56 | 42.48949 | 48.17327 | 39211 ft | 481 kts | 303° |
| 2026-05-05 16:57 | 42.51102 | 48.13788 | 39426 ft | 480 kts | 303° |
| 2026-05-05 16:57 | 42.53202 | 48.10332 | 39627 ft | 479 kts | 303° |
| 2026-05-05 16:57 | 42.55320 | 48.06841 | 39810 ft | 478 kts | 303° |
| 2026-05-05 16:57 | 42.57428 | 48.03363 | 39960 ft | 477 kts | 303° |
| 2026-05-05 16:58 | 42.59527 | 47.99894 | 40103 ft | 477 kts | 303° |
| 2026-05-05 16:58 | 42.61619 | 47.96435 | 40146 ft | 477 kts | 303° |
| 2026-05-05 16:58 | 42.65826 | 47.89462 | 40158 ft | 478 kts | 303° |
| 2026-05-05 16:59 | 42.70028 | 47.82484 | 40163 ft | 477 kts | 303° |
| 2026-05-05 16:59 | 42.74217 | 47.75509 | 40165 ft | 477 kts | 304° |
| 2026-05-05 17:00 | 42.78314 | 47.68432 | 40163 ft | 472 kts | 297° |
| 2026-05-05 17:00 | 42.81157 | 47.60357 | 40168 ft | 463 kts | 285° |
| 2026-05-05 17:01 | 42.83468 | 47.51991 | 40165 ft | 464 kts | 285° |
| 2026-05-05 17:01 | 42.85757 | 47.43624 | 40164 ft | 463 kts | 285° |
| 2026-05-05 17:02 | 42.88018 | 47.35309 | 40165 ft | 463 kts | 285° |
| 2026-05-05 17:02 | 42.90232 | 47.27131 | 40170 ft | 462 kts | 285° |
| 2026-05-05 17:03 | 42.92447 | 47.18917 | 40169 ft | 463 kts | 285° |
| 2026-05-05 17:03 | 42.94668 | 47.10650 | 40170 ft | 464 kts | 285° |
| 2026-05-05 17:04 | 42.96887 | 47.02360 | 40169 ft | 464 kts | 285° |
| 2026-05-05 17:04 | 42.99083 | 46.94128 | 40168 ft | 464 kts | 285° |
| 2026-05-05 17:05 | 43.01285 | 46.85847 | 40168 ft | 464 kts | 285° |
| 2026-05-05 17:05 | 43.03296 | 46.77554 | 40168 ft | 463 kts | 283° |
| 2026-05-05 17:06 | 43.05274 | 46.69171 | 40168 ft | 463 kts | 283° |
| 2026-05-05 17:06 | 43.07245 | 46.60821 | 40168 ft | 464 kts | 283° |
| 2026-05-05 17:07 | 43.09222 | 46.52437 | 40167 ft | 463 kts | 283° |
| 2026-05-05 17:07 | 43.11196 | 46.44040 | 40158 ft | 463 kts | 283° |
| 2026-05-05 17:08 | 43.13168 | 46.35626 | 40157 ft | 464 kts | 284° |
| 2026-05-05 17:08 | 43.15118 | 46.27278 | 40161 ft | 463 kts | 283° |
| 2026-05-05 17:09 | 43.17082 | 46.18840 | 40161 ft | 465 kts | 283° |
| 2026-05-05 17:09 | 43.19027 | 46.10451 | 40161 ft | 465 kts | 283° |
| 2026-05-05 17:10 | 43.21002 | 46.02018 | 40161 ft | 465 kts | 284° |
| 2026-05-05 17:10 | 43.22984 | 45.93617 | 40162 ft | 467 kts | 284° |
| 2026-05-05 17:11 | 43.24975 | 45.85138 | 40161 ft | 467 kts | 284° |
| 2026-05-05 17:11 | 43.26955 | 45.76671 | 40161 ft | 467 kts | 284° |
| 2026-05-05 17:12 | 43.28944 | 45.68131 | 40161 ft | 467 kts | 284° |
| 2026-05-05 17:12 | 43.30921 | 45.59607 | 40161 ft | 467 kts | 284° |
| 2026-05-05 17:13 | 43.32887 | 45.51093 | 40161 ft | 468 kts | 284° |
| 2026-05-05 17:13 | 43.34843 | 45.42522 | 40160 ft | 468 kts | 284° |
| 2026-05-05 17:14 | 43.36795 | 45.33933 | 40161 ft | 468 kts | 283° |
| 2026-05-05 17:14 | 43.38725 | 45.25408 | 40163 ft | 468 kts | 283° |
| 2026-05-05 17:15 | 43.40664 | 45.16811 | 40163 ft | 468 kts | 283° |
| 2026-05-05 17:15 | 43.42587 | 45.08252 | 40163 ft | 468 kts | 283° |
| 2026-05-05 17:16 | 43.44503 | 44.99688 | 40163 ft | 469 kts | 283° |
| 2026-05-05 17:16 | 43.46424 | 44.91070 | 40163 ft | 469 kts | 283° |
| 2026-05-05 17:17 | 43.48329 | 44.82488 | 40163 ft | 469 kts | 283° |
| 2026-05-05 17:17 | 43.50241 | 44.73843 | 40163 ft | 470 kts | 283° |
| 2026-05-05 17:18 | 43.52125 | 44.65288 | 40163 ft | 469 kts | 284° |
| 2026-05-05 17:18 | 43.54033 | 44.56588 | 40163 ft | 469 kts | 284° |
| 2026-05-05 17:19 | 43.55925 | 44.47927 | 40164 ft | 471 kts | 284° |
| 2026-05-05 17:19 | 43.57804 | 44.39291 | 40163 ft | 471 kts | 284° |
| 2026-05-05 17:20 | 43.59690 | 44.30584 | 40165 ft | 470 kts | 283° |
| 2026-05-05 17:20 | 43.61570 | 44.21874 | 40165 ft | 470 kts | 283° |
| 2026-05-05 17:21 | 43.63441 | 44.13161 | 40165 ft | 471 kts | 283° |
| 2026-05-05 17:22 | 43.66264 | 44.00115 | 40165 ft | 471 kts | 283° |
| 2026-05-05 17:22 | 43.68129 | 43.91458 | 40165 ft | 472 kts | 284° |
| 2026-05-05 17:23 | 43.69994 | 43.82769 | 40166 ft | 472 kts | 284° |
| 2026-05-05 17:23 | 43.71846 | 43.74101 | 40169 ft | 472 kts | 284° |
| 2026-05-05 17:24 | 43.73715 | 43.65311 | 40171 ft | 472 kts | 284° |
| 2026-05-05 17:24 | 43.75699 | 43.55947 | 40174 ft | 472 kts | 284° |
| 2026-05-05 17:25 | 43.77241 | 43.48635 | 40175 ft | 472 kts | 284° |
| 2026-05-05 17:25 | 43.79369 | 43.38505 | 40178 ft | 472 kts | 284° |
| 2026-05-05 17:26 | 43.81205 | 43.29722 | 40182 ft | 472 kts | 283° |
| 2026-05-05 17:26 | 43.83022 | 43.20996 | 40185 ft | 472 kts | 283° |
| 2026-05-05 17:27 | 43.84839 | 43.12227 | 40187 ft | 472 kts | 283° |
| 2026-05-05 17:27 | 43.86647 | 43.03469 | 40186 ft | 472 kts | 283° |
| 2026-05-05 17:28 | 43.88457 | 42.94658 | 40187 ft | 473 kts | 283° |
| 2026-05-05 17:28 | 43.90250 | 42.85898 | 40187 ft | 473 kts | 283° |
| 2026-05-05 17:29 | 43.92044 | 42.77092 | 40187 ft | 473 kts | 283° |
| 2026-05-05 17:29 | 43.93853 | 42.68177 | 40186 ft | 473 kts | 283° |
| 2026-05-05 17:30 | 43.94814 | 42.59219 | 40182 ft | 468 kts | 268° |
| 2026-05-05 17:30 | 43.94629 | 42.50054 | 40186 ft | 468 kts | 266° |
| 2026-05-05 17:31 | 43.94389 | 42.41036 | 40186 ft | 469 kts | 266° |
| 2026-05-05 17:31 | 43.94132 | 42.31958 | 40187 ft | 468 kts | 265° |
| 2026-05-05 17:32 | 43.93865 | 42.22866 | 40187 ft | 469 kts | 265° |
| 2026-05-05 17:32 | 43.93590 | 42.13837 | 40187 ft | 469 kts | 265° |
| 2026-05-05 17:33 | 43.93309 | 42.04848 | 40187 ft | 469 kts | 265° |
| 2026-05-05 17:33 | 43.93019 | 41.95828 | 40185 ft | 469 kts | 265° |
| 2026-05-05 17:34 | 43.92722 | 41.86834 | 40178 ft | 469 kts | 265° |
| 2026-05-05 17:34 | 43.92417 | 41.77799 | 40170 ft | 469 kts | 265° |
| 2026-05-05 17:35 | 43.92104 | 41.68758 | 40166 ft | 469 kts | 265° |
| 2026-05-05 17:35 | 43.91785 | 41.59753 | 40166 ft | 469 kts | 265° |
| 2026-05-05 17:36 | 43.91454 | 41.50753 | 40165 ft | 469 kts | 265° |
| 2026-05-05 17:36 | 43.91106 | 41.41737 | 40165 ft | 469 kts | 265° |
| 2026-05-05 17:36 | 43.90931 | 41.37258 | 40061 ft | 464 kts | 265° |
| 2026-05-05 17:37 | 43.90757 | 41.32829 | 39329 ft | 464 kts | 264° |
| 2026-05-05 17:37 | 43.90636 | 41.29816 | 38666 ft | 468 kts | 264° |
| 2026-05-05 17:37 | 43.90394 | 41.23806 | 37372 ft | 474 kts | 264° |
| 2026-05-05 17:37 | 43.90210 | 41.19291 | 36500 ft | 476 kts | 264° |
| 2026-05-05 17:38 | 43.90021 | 41.14665 | 35619 ft | 478 kts | 264° |
| 2026-05-05 17:38 | 43.89832 | 41.10109 | 34739 ft | 479 kts | 264° |
| 2026-05-05 17:38 | 43.89638 | 41.05478 | 33836 ft | 481 kts | 264° |
| 2026-05-05 17:38 | 43.89445 | 41.00906 | 32942 ft | 483 kts | 264° |
| 2026-05-05 17:39 | 43.89247 | 40.96255 | 32022 ft | 484 kts | 264° |
| 2026-05-05 17:39 | 43.89048 | 40.91637 | 31107 ft | 485 kts | 264° |
| 2026-05-05 17:39 | 43.88847 | 40.86999 | 30458 ft | 480 kts | 264° |
| 2026-05-05 17:39 | 43.88646 | 40.82408 | 29986 ft | 472 kts | 264° |
| 2026-05-05 17:40 | 43.88449 | 40.77934 | 29479 ft | 466 kts | 264° |
| 2026-05-05 17:40 | 43.88136 | 40.73494 | 28941 ft | 458 kts | 258° |
| 2026-05-05 17:40 | 43.87395 | 40.69286 | 28412 ft | 451 kts | 250° |
| 2026-05-05 17:40 | 43.86264 | 40.65284 | 27883 ft | 444 kts | 245° |
| 2026-05-05 17:41 | 43.85030 | 40.61346 | 27353 ft | 451 kts | 245° |
| 2026-05-05 17:41 | 43.83771 | 40.57371 | 26793 ft | 456 kts | 245° |
| 2026-05-05 17:41 | 43.82496 | 40.53357 | 26230 ft | 452 kts | 245° |
| 2026-05-05 17:41 | 43.81242 | 40.49417 | 25677 ft | 446 kts | 245° |
| 2026-05-05 17:42 | 43.79999 | 40.45524 | 25136 ft | 440 kts | 245° |
| 2026-05-05 17:42 | 43.78762 | 40.41660 | 24595 ft | 435 kts | 245° |
| 2026-05-05 17:42 | 43.77561 | 40.37915 | 24051 ft | 432 kts | 245° |
| 2026-05-05 17:42 | 43.76337 | 40.34103 | 23492 ft | 428 kts | 244° |
| 2026-05-05 17:43 | 43.75147 | 40.30407 | 22949 ft | 424 kts | 244° |
| 2026-05-05 17:43 | 43.73945 | 40.26675 | 22390 ft | 420 kts | 244° |
| 2026-05-05 17:43 | 43.72763 | 40.23015 | 21841 ft | 417 kts | 244° |
| 2026-05-05 17:43 | 43.71598 | 40.19413 | 21297 ft | 413 kts | 244° |
| 2026-05-05 17:44 | 43.70297 | 40.15905 | 20738 ft | 408 kts | 236° |
| 2026-05-05 17:44 | 43.68610 | 40.12824 | 20193 ft | 402 kts | 226° |
| 2026-05-05 17:44 | 43.66553 | 40.10211 | 19698 ft | 396 kts | 216° |
| 2026-05-05 17:44 | 43.64249 | 40.08189 | 19279 ft | 393 kts | 206° |
| 2026-05-05 17:45 | 43.61801 | 40.06558 | 18865 ft | 390 kts | 204° |
| 2026-05-05 17:45 | 43.59375 | 40.04999 | 18444 ft | 387 kts | 204° |
| 2026-05-05 17:45 | 43.56954 | 40.03458 | 18023 ft | 384 kts | 203° |
| 2026-05-05 17:45 | 43.54543 | 40.01931 | 17604 ft | 382 kts | 203° |
| 2026-05-05 17:46 | 43.52126 | 40.00407 | 17186 ft | 380 kts | 203° |
| 2026-05-05 17:46 | 43.49731 | 39.98902 | 16770 ft | 379 kts | 203° |
| 2026-05-05 17:46 | 43.47352 | 39.97411 | 16357 ft | 377 kts | 203° |
| 2026-05-05 17:46 | 43.44967 | 39.96011 | 15947 ft | 374 kts | 199° |
| 2026-05-05 17:47 | 43.42527 | 39.94869 | 15502 ft | 363 kts | 197° |
| 2026-05-05 17:47 | 43.40174 | 39.93797 | 15080 ft | 353 kts | 197° |
| 2026-05-05 17:47 | 43.37881 | 39.92754 | 14617 ft | 345 kts | 197° |
| 2026-05-05 17:47 | 43.35642 | 39.91737 | 14146 ft | 339 kts | 197° |
| 2026-05-05 17:48 | 43.33426 | 39.90729 | 13722 ft | 331 kts | 197° |
| 2026-05-05 17:48 | 43.31278 | 39.89753 | 13328 ft | 324 kts | 197° |
| 2026-05-05 17:48 | 43.29156 | 39.88789 | 12931 ft | 318 kts | 197° |
| 2026-05-05 17:48 | 43.27088 | 39.87850 | 12537 ft | 313 kts | 197° |
| 2026-05-05 17:49 | 43.25034 | 39.86918 | 12133 ft | 308 kts | 197° |
| 2026-05-05 17:49 | 43.23032 | 39.86010 | 11737 ft | 304 kts | 197° |
| 2026-05-05 17:49 | 43.21030 | 39.85102 | 11351 ft | 300 kts | 197° |
| 2026-05-05 17:49 | 43.19078 | 39.84219 | 10978 ft | 296 kts | 198° |
| 2026-05-05 17:50 | 43.17127 | 39.83336 | 10600 ft | 292 kts | 198° |
| 2026-05-05 17:50 | 43.15214 | 39.82471 | 10234 ft | 289 kts | 198° |
| 2026-05-05 17:50 | 43.13340 | 39.81624 | 9866 ft | 287 kts | 198° |
| 2026-05-05 17:50 | 43.11453 | 39.80772 | 9452 ft | 286 kts | 198° |
| 2026-05-05 17:51 | 43.09555 | 39.79915 | 9034 ft | 285 kts | 198° |
| 2026-05-05 17:51 | 43.07693 | 39.79014 | 8619 ft | 284 kts | 206° |
| 2026-05-05 17:51 | 43.06186 | 39.77340 | 8208 ft | 283 kts | 234° |
| 2026-05-05 17:51 | 43.05357 | 39.74951 | 7825 ft | 279 kts | 260° |
| 2026-05-05 17:52 | 43.05320 | 39.72361 | 7705 ft | 269 kts | 278° |
| 2026-05-05 17:52 | 43.05683 | 39.69855 | 7585 ft | 267 kts | 285° |
| 2026-05-05 17:52 | 43.06184 | 39.67424 | 7426 ft | 266 kts | 288° |
| 2026-05-05 17:52 | 43.06731 | 39.64987 | 7251 ft | 265 kts | 288° |
| 2026-05-05 17:53 | 43.07283 | 39.62571 | 7075 ft | 264 kts | 288° |
| 2026-05-05 17:53 | 43.07825 | 39.60204 | 6904 ft | 263 kts | 288° |
| 2026-05-05 17:53 | 43.08375 | 39.57807 | 6730 ft | 262 kts | 289° |
| 2026-05-05 17:53 | 43.08926 | 39.55419 | 6557 ft | 261 kts | 289° |
| 2026-05-05 17:54 | 43.09472 | 39.53042 | 6385 ft | 261 kts | 289° |
| 2026-05-05 17:54 | 43.10007 | 39.50709 | 6216 ft | 260 kts | 289° |
| 2026-05-05 17:54 | 43.10791 | 39.48515 | 6030 ft | 258 kts | 311° |
| 2026-05-05 17:54 | 43.12210 | 39.47041 | 5849 ft | 256 kts | 338° |
| 2026-05-05 17:55 | 43.13932 | 39.46585 | 5687 ft | 255 kts | 359° |
| 2026-05-05 17:55 | 43.15689 | 39.46632 | 5528 ft | 254 kts | 4° |
| 2026-05-05 17:55 | 43.17425 | 39.47044 | 5349 ft | 254 kts | 23° |
| 2026-05-05 17:55 | 43.18848 | 39.48447 | 5174 ft | 255 kts | 50° |
| 2026-05-05 17:56 | 43.19690 | 39.50570 | 5016 ft | 256 kts | 69° |
| 2026-05-05 17:56 | 43.20267 | 39.52900 | 4852 ft | 256 kts | 72° |
| 2026-05-05 17:56 | 43.20804 | 39.55226 | 4684 ft | 255 kts | 72° |
| 2026-05-05 17:56 | 43.21342 | 39.57553 | 4516 ft | 255 kts | 72° |
| 2026-05-05 17:57 | 43.21875 | 39.59851 | 4350 ft | 254 kts | 71° |
| 2026-05-05 17:57 | 43.22409 | 39.62153 | 4183 ft | 254 kts | 71° |
| 2026-05-05 17:57 | 43.22944 | 39.64458 | 4017 ft | 253 kts | 71° |
| 2026-05-05 17:57 | 43.23476 | 39.66755 | 3850 ft | 253 kts | 72° |
| 2026-05-05 17:58 | 43.24012 | 39.69067 | 3683 ft | 252 kts | 71° |
| 2026-05-05 17:58 | 43.24542 | 39.71356 | 3518 ft | 252 kts | 71° |
| 2026-05-05 17:58 | 43.25066 | 39.73629 | 3354 ft | 251 kts | 71° |
| 2026-05-05 17:58 | 43.25594 | 39.75912 | 3189 ft | 251 kts | 71° |
| 2026-05-05 17:59 | 43.26122 | 39.78204 | 3023 ft | 250 kts | 71° |
| 2026-05-05 17:59 | 43.26662 | 39.80477 | 2855 ft | 249 kts | 66° |
| 2026-05-05 17:59 | 43.27648 | 39.82354 | 2680 ft | 246 kts | 39° |
| 2026-05-05 17:59 | 43.29053 | 39.83651 | 2528 ft | 238 kts | 30° |
| 2026-05-05 18:00 | 43.30438 | 39.84720 | 2390 ft | 219 kts | 28° |
| 2026-05-05 18:00 | 43.31728 | 39.85685 | 2243 ft | 205 kts | 27° |
| 2026-05-05 18:00 | 43.32943 | 39.86594 | 2110 ft | 194 kts | 27° |
| 2026-05-05 18:00 | 43.34089 | 39.87451 | 2009 ft | 183 kts | 27° |
| 2026-05-05 18:01 | 43.35183 | 39.88270 | 1988 ft | 176 kts | 27° |
| 2026-05-05 18:01 | 43.36263 | 39.89085 | 1884 ft | 175 kts | 28° |
| 2026-05-05 18:01 | 43.37324 | 39.89909 | 1728 ft | 177 kts | 28° |
| 2026-05-05 18:01 | 43.38380 | 39.90738 | 1639 ft | 172 kts | 27° |
| 2026-05-05 18:02 | 43.39421 | 39.91481 | 1451 ft | 168 kts | 25° |
| 2026-05-05 18:02 | 43.40430 | 39.92191 | 1102 ft | 156 kts | 26° |
| 2026-05-05 18:02 | 43.41337 | 39.92877 | 801 ft | 150 kts | 27° |
| 2026-05-05 18:02 | 43.42238 | 39.93579 | 538 ft | 148 kts | 27° |
| 2026-05-05 18:03 | 43.43114 | 39.94248 | 301 ft | 141 kts | 26° |
| 2026-05-05 18:03 | 43.43967 | 39.94868 | 108 ft | 130 kts | 25° |
| 2026-05-05 18:03 | 43.44667 | 39.95385 | 101 ft | 96 kts | 27° |
| 2026-05-05 18:03 | 43.44962 | 39.95567 | 101 ft | 30 kts | 339° |
| 2026-05-05 18:04 | 43.45059 | 39.95467 | 101 ft | 15 kts | 265° |
| 2026-05-05 18:04 | 43.45016 | 39.95329 | 101 ft | 16 kts | 245° |
| 2026-05-05 18:04 | 43.44965 | 39.95181 | 101 ft | 17 kts | 245° |
| 2026-05-05 18:04 | 43.44920 | 39.95059 | 101 ft | 0 kts | 244° |
| 2026-05-05 18:06 | 43.44920 | 39.95057 | 101 ft | 1 kts | 244° |
| 2026-05-05 18:06 | 43.44909 | 39.95028 | 101 ft | 8 kts | 244° |
| 2026-05-05 18:07 | 43.44865 | 39.94899 | 101 ft | 19 kts | 244° |
| 2026-05-05 18:07 | 43.44888 | 39.94804 | 101 ft | 8 kts | 337° |
| 2026-05-05 18:07 | 43.44952 | 39.94800 | 101 ft | 4 kts | 4° |
| 2026-05-05 18:07 | 43.44958 | 39.94801 | 101 ft | 0 kts | 4° |